Kirkstone Pass, United Kingdom
Current Conditions -  °F | °C
As of 5:50 PM on Tuesday 21 Oct 2014 (Local Time) from EGNC Reporting Station
Rain Showers Rain Showers  
Wind Chill: 37°   Ceiling: Unl
Heat Index: 45°   Visibility: 6mi
Dew Point: 36°   Wind: 20mph
Humidity: 71%   Direction: 290°WNW
Pressure: 29.8"   Gusts: 43mph
Location:  54.47°N, 2.92°W
Report Text: EGNC 211650Z 29017G37KT 260V320 9999 VCSH SCT024 07/02 Q1009
Loading
Personal Weather Stations






























Interactive Weather Map
Tropical Storm Tracking
New forecast layout! Learn more

10-Day Weather Forecast

Advertisements
Track Severe Weather on mobile